sensor_id;sensor_type;location;lat;lon;timestamp;P1;durP1;ratioP1;P2;durP2;ratioP2
54985;SDS011;40885;53.070;6.228;2022-07-17T00:00:54;6.57;;;2.00;;
54985;SDS011;40885;53.070;6.228;2022-07-17T00:03:20;6.82;;;2.13;;
54985;SDS011;40885;53.070;6.228;2022-07-17T00:05:46;7.78;;;2.40;;
54985;SDS011;40885;53.070;6.228;2022-07-17T00:08:12;6.70;;;1.80;;
54985;SDS011;40885;53.070;6.228;2022-07-17T00:10:41;6.90;;;2.38;;
54985;SDS011;40885;53.070;6.228;2022-07-17T00:13:08;12.80;;;2.38;;
54985;SDS011;40885;53.070;6.228;2022-07-17T00:15:34;6.13;;;2.25;;
54985;SDS011;40885;53.070;6.228;2022-07-17T00:18:01;7.75;;;2.42;;
54985;SDS011;40885;53.070;6.228;2022-07-17T00:20:27;4.47;;;1.50;;
54985;SDS011;40885;53.070;6.228;2022-07-17T00:22:54;7.28;;;2.20;;
54985;SDS011;40885;53.070;6.228;2022-07-17T00:25:23;6.35;;;2.17;;
54985;SDS011;40885;53.070;6.228;2022-07-17T00:27:49;5.63;;;1.90;;
54985;SDS011;40885;53.070;6.228;2022-07-17T00:30:15;3.45;;;1.58;;
54985;SDS011;40885;53.070;6.228;2022-07-17T00:32:41;3.97;;;1.67;;
54985;SDS011;40885;53.070;6.228;2022-07-17T00:35:07;5.18;;;2.60;;
54985;SDS011;40885;53.070;6.228;2022-07-17T00:37:40;4.57;;;2.08;;
54985;SDS011;40885;53.070;6.228;2022-07-17T00:40:08;6.85;;;1.80;;
54985;SDS011;40885;53.070;6.228;2022-07-17T00:42:35;3.55;;;1.67;;
54985;SDS011;40885;53.070;6.228;2022-07-17T00:45:00;6.18;;;2.10;;
54985;SDS011;40885;53.070;6.228;2022-07-17T00:47:26;8.30;;;1.98;;
54985;SDS011;40885;53.070;6.228;2022-07-17T00:49:52;9.00;;;2.30;;
54985;SDS011;40885;53.070;6.228;2022-07-17T00:52:18;4.82;;;1.75;;
54985;SDS011;40885;53.070;6.228;2022-07-17T00:54:44;4.85;;;2.30;;
54985;SDS011;40885;53.070;6.228;2022-07-17T00:57:12;9.30;;;2.55;;
54985;SDS011;40885;53.070;6.228;2022-07-17T00:59:40;3.33;;;1.48;;
54985;SDS011;40885;53.070;6.228;2022-07-17T01:02:09;4.38;;;1.80;;
54985;SDS011;40885;53.070;6.228;2022-07-17T01:04:37;7.88;;;1.80;;
54985;SDS011;40885;53.070;6.228;2022-07-17T01:07:04;4.13;;;1.67;;
54985;SDS011;40885;53.070;6.228;2022-07-17T01:09:31;6.32;;;1.73;;
54985;SDS011;40885;53.070;6.228;2022-07-17T01:11:58;5.07;;;2.15;;
54985;SDS011;40885;53.070;6.228;2022-07-17T01:14:24;6.97;;;2.22;;
54985;SDS011;40885;53.070;6.228;2022-07-17T01:16:52;6.30;;;1.92;;
54985;SDS011;40885;53.070;6.228;2022-07-17T01:19:19;5.88;;;2.45;;
54985;SDS011;40885;53.070;6.228;2022-07-17T01:21:46;2.63;;;1.63;;
54985;SDS011;40885;53.070;6.228;2022-07-17T01:24:15;6.43;;;2.00;;
54985;SDS011;40885;53.070;6.228;2022-07-17T01:26:42;4.30;;;1.52;;
54985;SDS011;40885;53.070;6.228;2022-07-17T01:29:10;10.00;;;2.05;;
54985;SDS011;40885;53.070;6.228;2022-07-17T01:31:36;6.13;;;1.70;;
54985;SDS011;40885;53.070;6.228;2022-07-17T01:34:04;4.72;;;2.10;;
54985;SDS011;40885;53.070;6.228;2022-07-17T01:36:31;5.40;;;1.40;;
54985;SDS011;40885;53.070;6.228;2022-07-17T01:38:57;7.18;;;1.98;;
54985;SDS011;40885;53.070;6.228;2022-07-17T01:41:23;4.55;;;1.92;;
54985;SDS011;40885;53.070;6.228;2022-07-17T01:43:50;4.82;;;1.70;;
54985;SDS011;40885;53.070;6.228;2022-07-17T01:46:16;6.22;;;1.88;;
54985;SDS011;40885;53.070;6.228;2022-07-17T01:48:42;4.78;;;2.00;;
54985;SDS011;40885;53.070;6.228;2022-07-17T01:51:08;6.28;;;1.90;;
54985;SDS011;40885;53.070;6.228;2022-07-17T01:53:34;4.03;;;2.38;;
54985;SDS011;40885;53.070;6.228;2022-07-17T01:56:00;3.95;;;1.83;;
54985;SDS011;40885;53.070;6.228;2022-07-17T01:58:26;3.75;;;2.28;;
54985;SDS011;40885;53.070;6.228;2022-07-17T02:00:52;5.38;;;1.60;;
54985;SDS011;40885;53.070;6.228;2022-07-17T02:03:18;4.13;;;1.70;;
54985;SDS011;40885;53.070;6.228;2022-07-17T02:05:44;8.10;;;2.00;;
54985;SDS011;40885;53.070;6.228;2022-07-17T02:08:10;5.85;;;2.67;;
54985;SDS011;40885;53.070;6.228;2022-07-17T02:10:36;4.85;;;1.65;;
54985;SDS011;40885;53.070;6.228;2022-07-17T02:13:02;7.30;;;1.83;;
54985;SDS011;40885;53.070;6.228;2022-07-17T02:15:27;3.33;;;1.80;;
54985;SDS011;40885;53.070;6.228;2022-07-17T02:17:53;3.45;;;1.75;;
54985;SDS011;40885;53.070;6.228;2022-07-17T02:20:20;4.57;;;1.95;;
54985;SDS011;40885;53.070;6.228;2022-07-17T02:22:46;7.60;;;2.22;;
54985;SDS011;40885;53.070;6.228;2022-07-17T02:25:12;6.20;;;2.05;;
54985;SDS011;40885;53.070;6.228;2022-07-17T02:27:39;9.18;;;2.17;;
54985;SDS011;40885;53.070;6.228;2022-07-17T02:30:06;3.38;;;2.03;;
54985;SDS011;40885;53.070;6.228;2022-07-17T02:32:34;4.90;;;2.30;;
54985;SDS011;40885;53.070;6.228;2022-07-17T02:35:00;5.72;;;1.90;;
54985;SDS011;40885;53.070;6.228;2022-07-17T02:37:26;6.88;;;2.17;;
54985;SDS011;40885;53.070;6.228;2022-07-17T02:39:52;5.93;;;2.25;;
54985;SDS011;40885;53.070;6.228;2022-07-17T02:42:18;6.82;;;2.35;;
54985;SDS011;40885;53.070;6.228;2022-07-17T02:44:45;6.88;;;2.47;;
54985;SDS011;40885;53.070;6.228;2022-07-17T02:47:11;3.72;;;1.75;;
54985;SDS011;40885;53.070;6.228;2022-07-17T02:49:38;4.78;;;1.70;;
54985;SDS011;40885;53.070;6.228;2022-07-17T02:52:06;3.00;;;2.20;;
54985;SDS011;40885;53.070;6.228;2022-07-17T02:54:32;4.07;;;1.90;;
54985;SDS011;40885;53.070;6.228;2022-07-17T02:56:57;3.33;;;1.83;;
54985;SDS011;40885;53.070;6.228;2022-07-17T02:59:23;3.70;;;2.22;;
54985;SDS011;40885;53.070;6.228;2022-07-17T03:01:49;3.22;;;1.98;;
54985;SDS011;40885;53.070;6.228;2022-07-17T03:04:15;6.40;;;1.88;;
54985;SDS011;40885;53.070;6.228;2022-07-17T03:06:40;6.03;;;1.90;;
54985;SDS011;40885;53.070;6.228;2022-07-17T03:09:06;2.45;;;1.65;;
54985;SDS011;40885;53.070;6.228;2022-07-17T03:11:32;4.68;;;2.10;;
54985;SDS011;40885;53.070;6.228;2022-07-17T03:13:57;5.15;;;2.35;;
54985;SDS011;40885;53.070;6.228;2022-07-17T03:16:23;3.85;;;2.03;;
54985;SDS011;40885;53.070;6.228;2022-07-17T03:18:49;2.67;;;1.88;;
54985;SDS011;40885;53.070;6.228;2022-07-17T03:21:20;7.50;;;2.20;;
54985;SDS011;40885;53.070;6.228;2022-07-17T03:23:46;6.28;;;1.90;;
54985;SDS011;40885;53.070;6.228;2022-07-17T03:26:12;6.25;;;2.35;;
54985;SDS011;40885;53.070;6.228;2022-07-17T03:28:38;6.60;;;2.85;;
54985;SDS011;40885;53.070;6.228;2022-07-17T03:31:03;4.10;;;2.28;;
54985;SDS011;40885;53.070;6.228;2022-07-17T03:33:29;3.00;;;2.60;;
54985;SDS011;40885;53.070;6.228;2022-07-17T03:35:55;5.28;;;2.83;;
54985;SDS011;40885;53.070;6.228;2022-07-17T03:38:21;3.88;;;2.55;;
54985;SDS011;40885;53.070;6.228;2022-07-17T03:40:49;7.20;;;2.72;;
54985;SDS011;40885;53.070;6.228;2022-07-17T03:43:15;3.65;;;2.30;;
54985;SDS011;40885;53.070;6.228;2022-07-17T03:45:41;5.45;;;2.10;;
54985;SDS011;40885;53.070;6.228;2022-07-17T03:48:07;5.30;;;2.30;;
54985;SDS011;40885;53.070;6.228;2022-07-17T03:50:33;6.47;;;2.38;;
54985;SDS011;40885;53.070;6.228;2022-07-17T03:52:59;6.40;;;2.53;;
54985;SDS011;40885;53.070;6.228;2022-07-17T03:55:25;3.92;;;2.42;;
54985;SDS011;40885;53.070;6.228;2022-07-17T03:57:51;5.90;;;2.83;;
54985;SDS011;40885;53.070;6.228;2022-07-17T04:00:16;6.47;;;2.70;;
54985;SDS011;40885;53.070;6.228;2022-07-17T04:02:42;5.30;;;2.67;;
54985;SDS011;40885;53.070;6.228;2022-07-17T04:05:08;7.30;;;2.95;;
54985;SDS011;40885;53.070;6.228;2022-07-17T04:07:38;8.43;;;2.55;;
54985;SDS011;40885;53.070;6.228;2022-07-17T04:10:05;6.25;;;2.60;;
54985;SDS011;40885;53.070;6.228;2022-07-17T04:12:32;5.25;;;3.00;;
54985;SDS011;40885;53.070;6.228;2022-07-17T04:14:58;8.75;;;2.70;;
54985;SDS011;40885;53.070;6.228;2022-07-17T04:17:24;4.75;;;2.47;;
54985;SDS011;40885;53.070;6.228;2022-07-17T04:19:50;2.90;;;2.05;;
54985;SDS011;40885;53.070;6.228;2022-07-17T04:22:16;4.57;;;2.58;;
54985;SDS011;40885;53.070;6.228;2022-07-17T04:24:42;3.38;;;2.58;;
54985;SDS011;40885;53.070;6.228;2022-07-17T04:27:08;3.13;;;2.50;;
54985;SDS011;40885;53.070;6.228;2022-07-17T04:29:35;3.88;;;3.00;;
54985;SDS011;40885;53.070;6.228;2022-07-17T04:32:01;4.32;;;2.50;;
54985;SDS011;40885;53.070;6.228;2022-07-17T04:34:28;4.43;;;2.30;;
54985;SDS011;40885;53.070;6.228;2022-07-17T04:36:54;4.97;;;2.70;;
54985;SDS011;40885;53.070;6.228;2022-07-17T04:39:19;5.72;;;2.33;;
54985;SDS011;40885;53.070;6.228;2022-07-17T04:41:45;5.85;;;2.67;;
54985;SDS011;40885;53.070;6.228;2022-07-17T04:44:11;4.20;;;2.60;;
54985;SDS011;40885;53.070;6.228;2022-07-17T04:46:37;7.22;;;2.83;;
54985;SDS011;40885;53.070;6.228;2022-07-17T04:49:03;7.95;;;3.05;;
54985;SDS011;40885;53.070;6.228;2022-07-17T04:51:28;4.65;;;2.28;;
54985;SDS011;40885;53.070;6.228;2022-07-17T04:53:57;7.20;;;2.47;;
54985;SDS011;40885;53.070;6.228;2022-07-17T04:56:23;7.15;;;2.70;;
54985;SDS011;40885;53.070;6.228;2022-07-17T04:58:49;7.60;;;2.72;;
54985;SDS011;40885;53.070;6.228;2022-07-17T05:01:15;3.40;;;2.58;;
54985;SDS011;40885;53.070;6.228;2022-07-17T05:03:40;3.92;;;1.95;;
54985;SDS011;40885;53.070;6.228;2022-07-17T05:06:06;6.63;;;2.63;;
54985;SDS011;40885;53.070;6.228;2022-07-17T05:08:33;7.55;;;2.65;;
54985;SDS011;40885;53.070;6.228;2022-07-17T05:11:00;6.50;;;2.40;;
54985;SDS011;40885;53.070;6.228;2022-07-17T05:13:25;5.78;;;2.97;;
54985;SDS011;40885;53.070;6.228;2022-07-17T05:15:51;3.97;;;3.03;;
54985;SDS011;40885;53.070;6.228;2022-07-17T05:18:17;4.72;;;2.40;;
54985;SDS011;40885;53.070;6.228;2022-07-17T05:20:43;7.93;;;2.83;;
54985;SDS011;40885;53.070;6.228;2022-07-17T05:23:08;6.88;;;2.42;;
54985;SDS011;40885;53.070;6.228;2022-07-17T05:25:34;7.32;;;3.17;;
54985;SDS011;40885;53.070;6.228;2022-07-17T05:28:00;10.10;;;3.00;;
54985;SDS011;40885;53.070;6.228;2022-07-17T05:30:27;7.53;;;2.63;;
54985;SDS011;40885;53.070;6.228;2022-07-17T05:32:52;7.57;;;2.60;;
54985;SDS011;40885;53.070;6.228;2022-07-17T05:35:18;5.90;;;2.60;;
54985;SDS011;40885;53.070;6.228;2022-07-17T05:37:44;4.88;;;2.78;;
54985;SDS011;40885;53.070;6.228;2022-07-17T05:40:10;7.45;;;3.00;;
54985;SDS011;40885;53.070;6.228;2022-07-17T05:42:36;6.43;;;2.85;;
54985;SDS011;40885;53.070;6.228;2022-07-17T05:45:02;6.60;;;3.80;;
54985;SDS011;40885;53.070;6.228;2022-07-17T05:47:29;8.23;;;2.92;;
54985;SDS011;40885;53.070;6.228;2022-07-17T05:49:55;7.20;;;2.72;;
54985;SDS011;40885;53.070;6.228;2022-07-17T05:52:21;7.65;;;2.40;;
54985;SDS011;40885;53.070;6.228;2022-07-17T05:54:49;5.68;;;2.42;;
54985;SDS011;40885;53.070;6.228;2022-07-17T05:57:15;3.33;;;2.33;;
54985;SDS011;40885;53.070;6.228;2022-07-17T05:59:41;11.15;;;2.72;;
54985;SDS011;40885;53.070;6.228;2022-07-17T06:02:07;10.20;;;3.83;;
54985;SDS011;40885;53.070;6.228;2022-07-17T06:04:39;8.20;;;2.83;;
54985;SDS011;40885;53.070;6.228;2022-07-17T06:07:04;9.95;;;3.55;;
54985;SDS011;40885;53.070;6.228;2022-07-17T06:09:30;7.43;;;2.50;;
54985;SDS011;40885;53.070;6.228;2022-07-17T06:11:57;8.88;;;3.03;;
54985;SDS011;40885;53.070;6.228;2022-07-17T06:14:23;7.53;;;2.30;;
54985;SDS011;40885;53.070;6.228;2022-07-17T06:16:50;7.07;;;2.50;;
54985;SDS011;40885;53.070;6.228;2022-07-17T06:19:16;5.65;;;2.40;;
54985;SDS011;40885;53.070;6.228;2022-07-17T06:21:42;5.78;;;2.70;;
54985;SDS011;40885;53.070;6.228;2022-07-17T06:24:07;6.60;;;2.20;;
54985;SDS011;40885;53.070;6.228;2022-07-17T06:26:33;5.38;;;2.30;;
54985;SDS011;40885;53.070;6.228;2022-07-17T06:28:59;5.13;;;2.85;;
54985;SDS011;40885;53.070;6.228;2022-07-17T06:31:25;6.57;;;2.30;;
54985;SDS011;40885;53.070;6.228;2022-07-17T06:33:51;7.00;;;2.30;;
54985;SDS011;40885;53.070;6.228;2022-07-17T06:36:16;9.30;;;2.50;;
54985;SDS011;40885;53.070;6.228;2022-07-17T06:38:42;6.68;;;1.80;;
54985;SDS011;40885;53.070;6.228;2022-07-17T06:41:09;7.53;;;2.33;;
54985;SDS011;40885;53.070;6.228;2022-07-17T06:43:35;4.88;;;1.27;;
54985;SDS011;40885;53.070;6.228;2022-07-17T06:46:00;6.05;;;1.50;;
54985;SDS011;40885;53.070;6.228;2022-07-17T06:48:26;5.05;;;1.02;;
54985;SDS011;40885;53.070;6.228;2022-07-17T06:50:52;5.53;;;0.90;;
54985;SDS011;40885;53.070;6.228;2022-07-17T06:53:18;5.45;;;1.20;;
54985;SDS011;40885;53.070;6.228;2022-07-17T06:55:44;3.90;;;1.00;;
54985;SDS011;40885;53.070;6.228;2022-07-17T06:58:10;2.83;;;1.05;;
54985;SDS011;40885;53.070;6.228;2022-07-17T07:00:35;3.20;;;0.90;;
54985;SDS011;40885;53.070;6.228;2022-07-17T07:03:02;11.80;;;1.30;;
54985;SDS011;40885;53.070;6.228;2022-07-17T07:05:28;4.80;;;1.10;;
54985;SDS011;40885;53.070;6.228;2022-07-17T07:07:54;5.60;;;1.17;;
54985;SDS011;40885;53.070;6.228;2022-07-17T07:10:19;5.22;;;1.13;;
54985;SDS011;40885;53.070;6.228;2022-07-17T07:12:45;8.25;;;1.50;;
54985;SDS011;40885;53.070;6.228;2022-07-17T07:15:11;7.30;;;1.48;;
54985;SDS011;40885;53.070;6.228;2022-07-17T07:17:39;8.15;;;1.17;;
54985;SDS011;40885;53.070;6.228;2022-07-17T07:20:06;5.35;;;1.10;;
54985;SDS011;40885;53.070;6.228;2022-07-17T07:22:32;4.57;;;1.33;;
54985;SDS011;40885;53.070;6.228;2022-07-17T07:24:59;7.75;;;1.40;;
54985;SDS011;40885;53.070;6.228;2022-07-17T07:27:24;2.72;;;0.95;;
54985;SDS011;40885;53.070;6.228;2022-07-17T07:29:50;3.83;;;1.40;;
54985;SDS011;40885;53.070;6.228;2022-07-17T07:32:16;4.20;;;0.93;;
54985;SDS011;40885;53.070;6.228;2022-07-17T07:34:44;6.72;;;1.30;;
54985;SDS011;40885;53.070;6.228;2022-07-17T07:37:10;2.95;;;1.10;;
54985;SDS011;40885;53.070;6.228;2022-07-17T07:39:36;7.80;;;1.23;;
54985;SDS011;40885;53.070;6.228;2022-07-17T07:42:01;8.45;;;1.02;;
54985;SDS011;40885;53.070;6.228;2022-07-17T07:44:27;3.33;;;1.10;;
54985;SDS011;40885;53.070;6.228;2022-07-17T07:46:53;3.75;;;1.02;;
54985;SDS011;40885;53.070;6.228;2022-07-17T07:49:19;7.32;;;1.40;;
54985;SDS011;40885;53.070;6.228;2022-07-17T07:51:45;6.75;;;1.20;;
54985;SDS011;40885;53.070;6.228;2022-07-17T07:54:10;5.38;;;1.38;;
54985;SDS011;40885;53.070;6.228;2022-07-17T07:56:36;4.15;;;1.08;;
54985;SDS011;40885;53.070;6.228;2022-07-17T07:59:02;4.93;;;0.93;;
54985;SDS011;40885;53.070;6.228;2022-07-17T08:01:28;4.50;;;1.00;;
54985;SDS011;40885;53.070;6.228;2022-07-17T08:03:54;4.57;;;1.10;;
54985;SDS011;40885;53.070;6.228;2022-07-17T08:06:20;7.18;;;1.17;;
54985;SDS011;40885;53.070;6.228;2022-07-17T08:08:46;3.38;;;0.90;;
54985;SDS011;40885;53.070;6.228;2022-07-17T08:11:12;4.53;;;0.98;;
54985;SDS011;40885;53.070;6.228;2022-07-17T08:13:39;5.85;;;1.00;;
54985;SDS011;40885;53.070;6.228;2022-07-17T08:16:06;11.25;;;1.33;;
54985;SDS011;40885;53.070;6.228;2022-07-17T08:18:32;3.90;;;1.10;;
54985;SDS011;40885;53.070;6.228;2022-07-17T08:20:58;4.50;;;1.05;;
54985;SDS011;40885;53.070;6.228;2022-07-17T08:23:26;4.80;;;1.08;;
54985;SDS011;40885;53.070;6.228;2022-07-17T08:25:52;6.18;;;0.95;;
54985;SDS011;40885;53.070;6.228;2022-07-17T08:28:18;5.00;;;1.30;;
54985;SDS011;40885;53.070;6.228;2022-07-17T08:30:44;9.68;;;1.17;;
54985;SDS011;40885;53.070;6.228;2022-07-17T08:33:09;6.05;;;1.30;;
54985;SDS011;40885;53.070;6.228;2022-07-17T08:35:36;5.45;;;1.30;;
54985;SDS011;40885;53.070;6.228;2022-07-17T08:38:02;7.30;;;1.00;;
54985;SDS011;40885;53.070;6.228;2022-07-17T08:40:29;4.72;;;0.95;;
54985;SDS011;40885;53.070;6.228;2022-07-17T08:42:57;10.60;;;1.20;;
54985;SDS011;40885;53.070;6.228;2022-07-17T08:45:24;8.75;;;1.80;;
54985;SDS011;40885;53.070;6.228;2022-07-17T08:47:51;10.50;;;1.73;;
54985;SDS011;40885;53.070;6.228;2022-07-17T08:50:19;6.10;;;1.25;;
54985;SDS011;40885;53.070;6.228;2022-07-17T08:52:52;5.78;;;1.38;;
54985;SDS011;40885;53.070;6.228;2022-07-17T08:55:18;1.95;;;0.55;;
54985;SDS011;40885;53.070;6.228;2022-07-17T08:57:44;6.82;;;1.10;;
54985;SDS011;40885;53.070;6.228;2022-07-17T09:00:12;6.28;;;1.10;;
54985;SDS011;40885;53.070;6.228;2022-07-17T09:02:51;3.33;;;1.30;;
54985;SDS011;40885;53.070;6.228;2022-07-17T09:05:33;5.18;;;1.00;;
54985;SDS011;40885;53.070;6.228;2022-07-17T09:08:00;7.38;;;1.98;;
54985;SDS011;40885;53.070;6.228;2022-07-17T09:13:17;3.88;;;1.00;;
54985;SDS011;40885;53.070;6.228;2022-07-17T09:15:56;5.18;;;1.10;;
54985;SDS011;40885;53.070;6.228;2022-07-17T09:18:23;6.97;;;1.27;;
54985;SDS011;40885;53.070;6.228;2022-07-17T09:20:53;2.65;;;0.80;;
54985;SDS011;40885;53.070;6.228;2022-07-17T09:23:21;3.13;;;0.93;;
54985;SDS011;40885;53.070;6.228;2022-07-17T09:25:50;7.60;;;0.90;;
54985;SDS011;40885;53.070;6.228;2022-07-17T09:28:19;7.78;;;1.52;;
54985;SDS011;40885;53.070;6.228;2022-07-17T09:30:47;6.43;;;1.02;;
54985;SDS011;40885;53.070;6.228;2022-07-17T09:33:19;5.88;;;1.00;;
54985;SDS011;40885;53.070;6.228;2022-07-17T09:38:31;4.85;;;1.63;;
54985;SDS011;40885;53.070;6.228;2022-07-17T09:41:10;4.97;;;1.33;;
54985;SDS011;40885;53.070;6.228;2022-07-17T09:43:43;3.30;;;1.10;;
54985;SDS011;40885;53.070;6.228;2022-07-17T09:46:16;4.20;;;1.30;;
54985;SDS011;40885;53.070;6.228;2022-07-17T09:48:45;5.95;;;2.05;;
54985;SDS011;40885;53.070;6.228;2022-07-17T09:51:33;5.88;;;1.35;;
54985;SDS011;40885;53.070;6.228;2022-07-17T09:54:03;7.97;;;1.35;;
54985;SDS011;40885;53.070;6.228;2022-07-17T09:56:31;4.43;;;1.25;;
54985;SDS011;40885;53.070;6.228;2022-07-17T09:59:08;5.18;;;1.05;;
54985;SDS011;40885;53.070;6.228;2022-07-17T10:01:39;4.85;;;1.15;;
54985;SDS011;40885;53.070;6.228;2022-07-17T10:04:06;4.35;;;0.80;;
54985;SDS011;40885;53.070;6.228;2022-07-17T10:06:33;7.30;;;1.20;;
54985;SDS011;40885;53.070;6.228;2022-07-17T10:08:59;6.22;;;1.55;;
54985;SDS011;40885;53.070;6.228;2022-07-17T10:11:28;3.38;;;1.23;;
54985;SDS011;40885;53.070;6.228;2022-07-17T10:13:56;5.47;;;1.13;;
54985;SDS011;40885;53.070;6.228;2022-07-17T10:16:28;4.93;;;1.52;;
54985;SDS011;40885;53.070;6.228;2022-07-17T10:18:55;3.58;;;1.08;;
54985;SDS011;40885;53.070;6.228;2022-07-17T10:21:23;5.95;;;1.33;;
54985;SDS011;40885;53.070;6.228;2022-07-17T10:26:16;5.13;;;1.25;;
54985;SDS011;40885;53.070;6.228;2022-07-17T10:28:43;3.75;;;0.95;;
54985;SDS011;40885;53.070;6.228;2022-07-17T10:31:10;3.88;;;1.05;;
54985;SDS011;40885;53.070;6.228;2022-07-17T10:34:09;3.00;;;1.13;;
54985;SDS011;40885;53.070;6.228;2022-07-17T10:36:38;2.90;;;1.25;;
54985;SDS011;40885;53.070;6.228;2022-07-17T10:39:17;8.68;;;2.25;;
54985;SDS011;40885;53.070;6.228;2022-07-17T10:41:58;5.15;;;1.33;;
54985;SDS011;40885;53.070;6.228;2022-07-17T10:44:27;2.75;;;1.50;;
54985;SDS011;40885;53.070;6.228;2022-07-17T10:46:54;3.53;;;1.20;;
54985;SDS011;40885;53.070;6.228;2022-07-17T10:49:20;2.65;;;1.10;;
54985;SDS011;40885;53.070;6.228;2022-07-17T10:51:47;5.47;;;1.13;;
54985;SDS011;40885;53.070;6.228;2022-07-17T10:54:13;2.83;;;0.98;;
54985;SDS011;40885;53.070;6.228;2022-07-17T10:56:39;2.55;;;0.90;;
54985;SDS011;40885;53.070;6.228;2022-07-17T10:59:11;3.28;;;1.35;;
54985;SDS011;40885;53.070;6.228;2022-07-17T11:01:37;3.83;;;1.63;;
54985;SDS011;40885;53.070;6.228;2022-07-17T11:04:04;3.60;;;0.93;;
54985;SDS011;40885;53.070;6.228;2022-07-17T11:06:35;1.70;;;0.82;;
54985;SDS011;40885;53.070;6.228;2022-07-17T11:11:40;4.37;;;1.50;;
54985;SDS011;40885;53.070;6.228;2022-07-17T11:14:26;6.57;;;1.52;;
54985;SDS011;40885;53.070;6.228;2022-07-17T11:16:59;3.60;;;0.88;;
54985;SDS011;40885;53.070;6.228;2022-07-17T11:19:33;4.10;;;1.20;;
54985;SDS011;40885;53.070;6.228;2022-07-17T11:22:11;3.65;;;1.10;;
54985;SDS011;40885;53.070;6.228;2022-07-17T11:27:03;2.25;;;0.93;;
54985;SDS011;40885;53.070;6.228;2022-07-17T11:29:29;2.40;;;1.15;;
54985;SDS011;40885;53.070;6.228;2022-07-17T11:32:00;2.00;;;1.13;;
54985;SDS011;40885;53.070;6.228;2022-07-17T11:34:26;2.35;;;1.30;;
54985;SDS011;40885;53.070;6.228;2022-07-17T11:36:52;2.88;;;1.30;;
54985;SDS011;40885;53.070;6.228;2022-07-17T11:39:36;2.08;;;1.15;;
54985;SDS011;40885;53.070;6.228;2022-07-17T11:42:02;4.00;;;1.13;;
54985;SDS011;40885;53.070;6.228;2022-07-17T11:44:29;5.05;;;1.02;;
54985;SDS011;40885;53.070;6.228;2022-07-17T11:46:54;3.35;;;1.25;;
54985;SDS011;40885;53.070;6.228;2022-07-17T11:49:31;1.80;;;1.10;;
54985;SDS011;40885;53.070;6.228;2022-07-17T11:52:06;3.60;;;1.30;;
54985;SDS011;40885;53.070;6.228;2022-07-17T11:57:16;4.90;;;1.52;;
54985;SDS011;40885;53.070;6.228;2022-07-17T11:59:44;7.35;;;1.85;;
54985;SDS011;40885;53.070;6.228;2022-07-17T12:02:16;2.10;;;1.30;;
54985;SDS011;40885;53.070;6.228;2022-07-17T12:04:47;2.10;;;1.43;;
54985;SDS011;40885;53.070;6.228;2022-07-17T12:07:18;4.27;;;1.83;;
54985;SDS011;40885;53.070;6.228;2022-07-17T12:09:44;4.30;;;1.90;;
54985;SDS011;40885;53.070;6.228;2022-07-17T12:12:23;3.47;;;1.58;;
54985;SDS011;40885;53.070;6.228;2022-07-17T12:14:57;4.63;;;1.88;;
54985;SDS011;40885;53.070;6.228;2022-07-17T12:17:24;4.57;;;1.97;;
54985;SDS011;40885;53.070;6.228;2022-07-17T12:20:04;4.05;;;2.20;;
54985;SDS011;40885;53.070;6.228;2022-07-17T12:22:30;6.53;;;2.58;;
54985;SDS011;40885;53.070;6.228;2022-07-17T12:25:06;5.00;;;2.55;;
54985;SDS011;40885;53.070;6.228;2022-07-17T12:27:32;3.83;;;2.20;;
54985;SDS011;40885;53.070;6.228;2022-07-17T12:29:58;2.90;;;1.90;;
54985;SDS011;40885;53.070;6.228;2022-07-17T12:32:24;3.90;;;2.10;;
54985;SDS011;40885;53.070;6.228;2022-07-17T12:34:49;4.40;;;2.20;;
54985;SDS011;40885;53.070;6.228;2022-07-17T12:37:16;2.97;;;2.33;;
54985;SDS011;40885;53.070;6.228;2022-07-17T12:39:44;4.70;;;2.55;;
54985;SDS011;40885;53.070;6.228;2022-07-17T12:42:10;3.75;;;2.33;;
54985;SDS011;40885;53.070;6.228;2022-07-17T12:44:36;3.33;;;2.22;;
54985;SDS011;40885;53.070;6.228;2022-07-17T12:47:03;4.32;;;2.40;;
54985;SDS011;40885;53.070;6.228;2022-07-17T12:49:29;4.65;;;2.42;;
54985;SDS011;40885;53.070;6.228;2022-07-17T12:51:55;6.80;;;2.35;;
54985;SDS011;40885;53.070;6.228;2022-07-17T12:54:21;3.92;;;1.73;;
54985;SDS011;40885;53.070;6.228;2022-07-17T12:56:47;13.10;;;2.42;;
54985;SDS011;40885;53.070;6.228;2022-07-17T12:59:13;3.03;;;1.75;;
54985;SDS011;40885;53.070;6.228;2022-07-17T13:01:39;3.40;;;1.80;;
54985;SDS011;40885;53.070;6.228;2022-07-17T13:04:05;5.30;;;2.05;;
54985;SDS011;40885;53.070;6.228;2022-07-17T13:06:31;5.53;;;2.42;;
54985;SDS011;40885;53.070;6.228;2022-07-17T13:09:00;6.47;;;2.10;;
54985;SDS011;40885;53.070;6.228;2022-07-17T13:11:26;6.65;;;1.80;;
54985;SDS011;40885;53.070;6.228;2022-07-17T13:13:52;8.77;;;2.40;;
54985;SDS011;40885;53.070;6.228;2022-07-17T13:16:18;2.95;;;2.10;;
54985;SDS011;40885;53.070;6.228;2022-07-17T13:18:44;5.70;;;1.92;;
54985;SDS011;40885;53.070;6.228;2022-07-17T13:21:10;5.15;;;1.77;;
54985;SDS011;40885;53.070;6.228;2022-07-17T13:23:37;5.88;;;1.88;;
54985;SDS011;40885;53.070;6.228;2022-07-17T13:26:02;4.57;;;1.90;;
54985;SDS011;40885;53.070;6.228;2022-07-17T13:28:28;4.57;;;2.03;;
54985;SDS011;40885;53.070;6.228;2022-07-17T13:30:54;3.28;;;1.83;;
54985;SDS011;40885;53.070;6.228;2022-07-17T13:33:21;2.70;;;2.08;;
54985;SDS011;40885;53.070;6.228;2022-07-17T13:35:47;5.28;;;2.28;;
54985;SDS011;40885;53.070;6.228;2022-07-17T13:38:12;2.78;;;2.00;;
54985;SDS011;40885;53.070;6.228;2022-07-17T13:40:38;5.80;;;2.30;;
54985;SDS011;40885;53.070;6.228;2022-07-17T13:43:04;4.45;;;2.00;;
54985;SDS011;40885;53.070;6.228;2022-07-17T13:45:30;3.28;;;1.95;;
54985;SDS011;40885;53.070;6.228;2022-07-17T13:47:56;4.65;;;2.20;;
54985;SDS011;40885;53.070;6.228;2022-07-17T13:50:22;3.15;;;2.13;;
54985;SDS011;40885;53.070;6.228;2022-07-17T13:52:49;5.07;;;2.10;;
54985;SDS011;40885;53.070;6.228;2022-07-17T13:55:15;4.57;;;2.10;;
54985;SDS011;40885;53.070;6.228;2022-07-17T13:57:41;5.20;;;2.35;;
54985;SDS011;40885;53.070;6.228;2022-07-17T14:00:07;3.88;;;2.25;;
54985;SDS011;40885;53.070;6.228;2022-07-17T14:02:35;6.28;;;3.45;;
54985;SDS011;40885;53.070;6.228;2022-07-17T14:05:02;4.10;;;2.60;;
54985;SDS011;40885;53.070;6.228;2022-07-17T14:07:29;2.83;;;2.10;;
54985;SDS011;40885;53.070;6.228;2022-07-17T14:09:55;4.13;;;2.75;;
54985;SDS011;40885;53.070;6.228;2022-07-17T14:12:21;5.85;;;2.40;;
54985;SDS011;40885;53.070;6.228;2022-07-17T14:14:47;4.10;;;2.60;;
54985;SDS011;40885;53.070;6.228;2022-07-17T14:17:13;4.45;;;2.35;;
54985;SDS011;40885;53.070;6.228;2022-07-17T14:19:42;5.63;;;2.50;;
54985;SDS011;40885;53.070;6.228;2022-07-17T14:22:09;4.43;;;2.20;;
54985;SDS011;40885;53.070;6.228;2022-07-17T14:24:35;3.25;;;2.30;;
54985;SDS011;40885;53.070;6.228;2022-07-17T14:27:01;6.55;;;2.78;;
54985;SDS011;40885;53.070;6.228;2022-07-17T14:29:27;3.38;;;2.45;;
54985;SDS011;40885;53.070;6.228;2022-07-17T14:31:53;4.68;;;2.65;;
54985;SDS011;40885;53.070;6.228;2022-07-17T14:34:19;3.60;;;2.83;;
54985;SDS011;40885;53.070;6.228;2022-07-17T14:36:45;3.70;;;2.65;;
54985;SDS011;40885;53.070;6.228;2022-07-17T14:39:11;3.83;;;2.67;;
54985;SDS011;40885;53.070;6.228;2022-07-17T14:41:38;5.18;;;2.80;;
54985;SDS011;40885;53.070;6.228;2022-07-17T14:44:04;7.68;;;2.88;;
54985;SDS011;40885;53.070;6.228;2022-07-17T14:46:30;6.57;;;2.80;;
54985;SDS011;40885;53.070;6.228;2022-07-17T14:48:56;8.88;;;3.03;;
54985;SDS011;40885;53.070;6.228;2022-07-17T14:51:22;5.78;;;2.85;;
54985;SDS011;40885;53.070;6.228;2022-07-17T14:53:48;5.18;;;3.22;;
54985;SDS011;40885;53.070;6.228;2022-07-17T14:56:13;6.85;;;2.58;;
54985;SDS011;40885;53.070;6.228;2022-07-17T14:58:39;5.07;;;2.88;;
54985;SDS011;40885;53.070;6.228;2022-07-17T15:01:05;3.97;;;2.85;;
54985;SDS011;40885;53.070;6.228;2022-07-17T15:03:32;7.65;;;3.05;;